sensor_id;sensor_type;location;lat;lon;timestamp;P1;durP1;ratioP1;P2;durP2;ratioP2
75104;SDS011;64778;47.314;8.466;2022-12-10T00:03:36;24.00;;;11.90;;
75104;SDS011;64778;47.314;8.466;2022-12-10T00:06:02;25.08;;;12.50;;
75104;SDS011;64778;47.314;8.466;2022-12-10T00:08:29;24.70;;;12.88;;
75104;SDS011;64778;47.314;8.466;2022-12-10T00:10:55;21.50;;;11.95;;
75104;SDS011;64778;47.314;8.466;2022-12-10T00:15:47;25.05;;;12.75;;
75104;SDS011;64778;47.314;8.466;2022-12-10T00:18:13;23.25;;;12.75;;
75104;SDS011;64778;47.314;8.466;2022-12-10T00:23:05;22.83;;;12.02;;
75104;SDS011;64778;47.314;8.466;2022-12-10T00:25:34;24.98;;;12.80;;
75104;SDS011;64778;47.314;8.466;2022-12-10T00:28:02;23.17;;;11.60;;
75104;SDS011;64778;47.314;8.466;2022-12-10T00:30:27;22.38;;;11.80;;
75104;SDS011;64778;47.314;8.466;2022-12-10T00:35:19;20.38;;;10.52;;
75104;SDS011;64778;47.314;8.466;2022-12-10T00:37:44;21.77;;;11.23;;
75104;SDS011;64778;47.314;8.466;2022-12-10T00:40:12;23.38;;;12.05;;
75104;SDS011;64778;47.314;8.466;2022-12-10T00:42:40;24.95;;;12.50;;
75104;SDS011;64778;47.314;8.466;2022-12-10T00:45:06;25.30;;;13.10;;
75104;SDS011;64778;47.314;8.466;2022-12-10T00:50:00;24.73;;;12.88;;
75104;SDS011;64778;47.314;8.466;2022-12-10T00:52:28;23.52;;;11.95;;
75104;SDS011;64778;47.314;8.466;2022-12-10T00:54:53;24.13;;;12.25;;
75104;SDS011;64778;47.314;8.466;2022-12-10T00:59:44;27.52;;;13.63;;
75104;SDS011;64778;47.314;8.466;2022-12-10T01:02:15;25.98;;;13.30;;
75104;SDS011;64778;47.314;8.466;2022-12-10T01:04:40;25.35;;;13.05;;
75104;SDS011;64778;47.314;8.466;2022-12-10T01:07:08;25.77;;;13.38;;
75104;SDS011;64778;47.314;8.466;2022-12-10T01:09:39;26.13;;;13.75;;
75104;SDS011;64778;47.314;8.466;2022-12-10T01:12:04;25.20;;;13.05;;
75104;SDS011;64778;47.314;8.466;2022-12-10T01:16:58;25.10;;;12.82;;
75104;SDS011;64778;47.314;8.466;2022-12-10T01:19:27;26.52;;;12.93;;
75104;SDS011;64778;47.314;8.466;2022-12-10T01:21:54;25.63;;;13.25;;
75104;SDS011;64778;47.314;8.466;2022-12-10T01:24:21;25.02;;;12.73;;
75104;SDS011;64778;47.314;8.466;2022-12-10T01:26:47;25.90;;;13.85;;
75104;SDS011;64778;47.314;8.466;2022-12-10T01:29:13;28.13;;;13.73;;
75104;SDS011;64778;47.314;8.466;2022-12-10T01:31:39;24.38;;;13.02;;
75104;SDS011;64778;47.314;8.466;2022-12-10T01:34:09;27.65;;;13.75;;
75104;SDS011;64778;47.314;8.466;2022-12-10T01:36:43;29.13;;;13.75;;
75104;SDS011;64778;47.314;8.466;2022-12-10T01:39:14;30.38;;;14.65;;
75104;SDS011;64778;47.314;8.466;2022-12-10T01:41:47;27.65;;;13.88;;
75104;SDS011;64778;47.314;8.466;2022-12-10T01:46:40;26.73;;;14.13;;
75104;SDS011;64778;47.314;8.466;2022-12-10T01:49:31;28.45;;;14.68;;
75104;SDS011;64778;47.314;8.466;2022-12-10T01:51:59;28.77;;;14.43;;
75104;SDS011;64778;47.314;8.466;2022-12-10T01:54:31;29.58;;;14.23;;
75104;SDS011;64778;47.314;8.466;2022-12-10T01:57:06;31.02;;;15.52;;
75104;SDS011;64778;47.314;8.466;2022-12-10T01:59:32;33.67;;;15.77;;
75104;SDS011;64778;47.314;8.466;2022-12-10T02:07:42;28.17;;;14.38;;
75104;SDS011;64778;47.314;8.466;2022-12-10T02:13:11;27.90;;;14.73;;
75104;SDS011;64778;47.314;8.466;2022-12-10T02:15:58;30.48;;;14.55;;
75104;SDS011;64778;47.314;8.466;2022-12-10T02:19:07;27.73;;;15.02;;
75104;SDS011;64778;47.314;8.466;2022-12-10T02:21:37;26.10;;;13.40;;
75104;SDS011;64778;47.314;8.466;2022-12-10T02:24:07;26.80;;;14.77;;
75104;SDS011;64778;47.314;8.466;2022-12-10T02:27:22;29.25;;;14.73;;
75104;SDS011;64778;47.314;8.466;2022-12-10T02:29:31;26.15;;;13.65;;
75104;SDS011;64778;47.314;8.466;2022-12-10T02:32:06;26.17;;;13.77;;
75104;SDS011;64778;47.314;8.466;2022-12-10T02:34:40;27.23;;;13.82;;
75104;SDS011;64778;47.314;8.466;2022-12-10T02:37:10;28.65;;;13.85;;
75104;SDS011;64778;47.314;8.466;2022-12-10T02:39:52;26.08;;;13.38;;
75104;SDS011;64778;47.314;8.466;2022-12-10T02:42:21;24.80;;;13.20;;
75104;SDS011;64778;47.314;8.466;2022-12-10T02:44:50;24.45;;;13.43;;
75104;SDS011;64778;47.314;8.466;2022-12-10T02:47:19;26.02;;;13.50;;
75104;SDS011;64778;47.314;8.466;2022-12-10T02:49:46;25.65;;;13.40;;
75104;SDS011;64778;47.314;8.466;2022-12-10T02:52:15;24.23;;;11.95;;
75104;SDS011;64778;47.314;8.466;2022-12-10T02:54:45;23.73;;;12.45;;
75104;SDS011;64778;47.314;8.466;2022-12-10T03:08:24;25.87;;;13.40;;
75104;SDS011;64778;47.314;8.466;2022-12-10T03:11:18;23.88;;;11.98;;
75104;SDS011;64778;47.314;8.466;2022-12-10T03:16:15;21.48;;;12.07;;
75104;SDS011;64778;47.314;8.466;2022-12-10T03:18:45;23.10;;;12.57;;
75104;SDS011;64778;47.314;8.466;2022-12-10T03:21:15;22.98;;;12.40;;
75104;SDS011;64778;47.314;8.466;2022-12-10T03:23:43;23.17;;;12.38;;
75104;SDS011;64778;47.314;8.466;2022-12-10T03:26:14;20.35;;;11.18;;
75104;SDS011;64778;47.314;8.466;2022-12-10T03:28:46;21.88;;;12.55;;
75104;SDS011;64778;47.314;8.466;2022-12-10T03:31:19;22.15;;;11.95;;
75104;SDS011;64778;47.314;8.466;2022-12-10T03:33:48;22.77;;;12.25;;
75104;SDS011;64778;47.314;8.466;2022-12-10T03:36:14;18.73;;;11.30;;
75104;SDS011;64778;47.314;8.466;2022-12-10T03:38:44;21.88;;;11.95;;
75104;SDS011;64778;47.314;8.466;2022-12-10T03:41:10;21.80;;;11.85;;
75104;SDS011;64778;47.314;8.466;2022-12-10T03:43:35;22.95;;;12.63;;
75104;SDS011;64778;47.314;8.466;2022-12-10T03:46:13;22.67;;;12.05;;
75104;SDS011;64778;47.314;8.466;2022-12-10T03:48:39;21.52;;;12.13;;
75104;SDS011;64778;47.314;8.466;2022-12-10T03:51:05;22.08;;;12.13;;
75104;SDS011;64778;47.314;8.466;2022-12-10T03:53:30;23.92;;;13.02;;
75104;SDS011;64778;47.314;8.466;2022-12-10T03:55:56;21.45;;;11.77;;
75104;SDS011;64778;47.314;8.466;2022-12-10T03:58:26;23.85;;;12.55;;
75104;SDS011;64778;47.314;8.466;2022-12-10T04:00:52;23.55;;;13.02;;
75104;SDS011;64778;47.314;8.466;2022-12-10T04:05:46;25.02;;;13.55;;
75104;SDS011;64778;47.314;8.466;2022-12-10T04:08:11;22.40;;;12.20;;
75104;SDS011;64778;47.314;8.466;2022-12-10T04:10:37;24.45;;;13.25;;
75104;SDS011;64778;47.314;8.466;2022-12-10T04:13:03;25.58;;;12.90;;
75104;SDS011;64778;47.314;8.466;2022-12-10T04:15:50;29.60;;;14.43;;
75104;SDS011;64778;47.314;8.466;2022-12-10T04:21:48;27.98;;;13.88;;
75104;SDS011;64778;47.314;8.466;2022-12-10T04:24:33;25.30;;;13.10;;
75104;SDS011;64778;47.314;8.466;2022-12-10T04:27:40;28.23;;;14.25;;
75104;SDS011;64778;47.314;8.466;2022-12-10T04:30:08;26.77;;;13.30;;
75104;SDS011;64778;47.314;8.466;2022-12-10T04:32:35;26.98;;;12.65;;
75104;SDS011;64778;47.314;8.466;2022-12-10T04:35:03;27.02;;;13.10;;
75104;SDS011;64778;47.314;8.466;2022-12-10T04:37:30;24.17;;;12.82;;
75104;SDS011;64778;47.314;8.466;2022-12-10T04:39:55;24.13;;;12.75;;
75104;SDS011;64778;47.314;8.466;2022-12-10T04:44:47;26.10;;;12.90;;
75104;SDS011;64778;47.314;8.466;2022-12-10T04:47:13;26.73;;;13.27;;
75104;SDS011;64778;47.314;8.466;2022-12-10T04:49:39;24.58;;;12.75;;
75104;SDS011;64778;47.314;8.466;2022-12-10T04:52:10;22.88;;;12.75;;
75104;SDS011;64778;47.314;8.466;2022-12-10T04:54:37;27.08;;;12.82;;
75104;SDS011;64778;47.314;8.466;2022-12-10T04:57:03;26.23;;;13.82;;
75104;SDS011;64778;47.314;8.466;2022-12-10T04:59:31;22.95;;;12.50;;
75104;SDS011;64778;47.314;8.466;2022-12-10T05:01:57;26.38;;;12.88;;
75104;SDS011;64778;47.314;8.466;2022-12-10T05:06:48;25.58;;;12.38;;
75104;SDS011;64778;47.314;8.466;2022-12-10T05:09:14;26.63;;;13.23;;
75104;SDS011;64778;47.314;8.466;2022-12-10T05:11:41;22.02;;;12.35;;
75104;SDS011;64778;47.314;8.466;2022-12-10T05:14:13;24.92;;;11.82;;
75104;SDS011;64778;47.314;8.466;2022-12-10T05:16:42;24.70;;;13.07;;
75104;SDS011;64778;47.314;8.466;2022-12-10T05:19:10;25.40;;;13.38;;
75104;SDS011;64778;47.314;8.466;2022-12-10T05:21:41;28.10;;;13.63;;
75104;SDS011;64778;47.314;8.466;2022-12-10T05:24:32;27.98;;;14.07;;
75104;SDS011;64778;47.314;8.466;2022-12-10T05:27:00;25.88;;;13.57;;
75104;SDS011;64778;47.314;8.466;2022-12-10T05:29:25;25.75;;;12.93;;
75104;SDS011;64778;47.314;8.466;2022-12-10T05:34:19;25.15;;;12.07;;
75104;SDS011;64778;47.314;8.466;2022-12-10T05:36:47;28.00;;;13.90;;
75104;SDS011;64778;47.314;8.466;2022-12-10T05:39:13;24.77;;;13.50;;
75104;SDS011;64778;47.314;8.466;2022-12-10T05:41:39;25.40;;;12.93;;
75104;SDS011;64778;47.314;8.466;2022-12-10T05:44:05;23.70;;;12.52;;
75104;SDS011;64778;47.314;8.466;2022-12-10T05:46:33;25.00;;;13.40;;
75104;SDS011;64778;47.314;8.466;2022-12-10T05:49:00;27.20;;;13.02;;
75104;SDS011;64778;47.314;8.466;2022-12-10T05:51:28;24.02;;;12.15;;
75104;SDS011;64778;47.314;8.466;2022-12-10T05:53:56;22.67;;;12.20;;
75104;SDS011;64778;47.314;8.466;2022-12-10T05:56:23;20.92;;;10.88;;
75104;SDS011;64778;47.314;8.466;2022-12-10T05:58:51;20.67;;;11.48;;
75104;SDS011;64778;47.314;8.466;2022-12-10T06:01:21;21.70;;;11.38;;
75104;SDS011;64778;47.314;8.466;2022-12-10T06:03:52;21.92;;;11.43;;
75104;SDS011;64778;47.314;8.466;2022-12-10T06:06:21;21.13;;;11.25;;
75104;SDS011;64778;47.314;8.466;2022-12-10T06:08:50;21.73;;;11.70;;
75104;SDS011;64778;47.314;8.466;2022-12-10T06:11:19;18.30;;;10.70;;
75104;SDS011;64778;47.314;8.466;2022-12-10T06:13:45;19.42;;;9.90;;
75104;SDS011;64778;47.314;8.466;2022-12-10T06:16:11;18.42;;;10.52;;
75104;SDS011;64778;47.314;8.466;2022-12-10T06:18:38;21.42;;;11.57;;
75104;SDS011;64778;47.314;8.466;2022-12-10T06:21:08;21.88;;;12.43;;
75104;SDS011;64778;47.314;8.466;2022-12-10T06:23:38;20.75;;;11.15;;
75104;SDS011;64778;47.314;8.466;2022-12-10T06:26:05;19.40;;;9.80;;
75104;SDS011;64778;47.314;8.466;2022-12-10T06:28:34;17.48;;;10.55;;
75104;SDS011;64778;47.314;8.466;2022-12-10T06:31:02;17.98;;;10.10;;
75104;SDS011;64778;47.314;8.466;2022-12-10T06:35:54;18.30;;;9.70;;
75104;SDS011;64778;47.314;8.466;2022-12-10T06:38:19;16.95;;;9.57;;
75104;SDS011;64778;47.314;8.466;2022-12-10T06:40:45;18.45;;;9.75;;
75104;SDS011;64778;47.314;8.466;2022-12-10T06:45:39;16.05;;;9.05;;
75104;SDS011;64778;47.314;8.466;2022-12-10T06:48:06;16.05;;;9.18;;
75104;SDS011;64778;47.314;8.466;2022-12-10T06:50:32;16.98;;;9.35;;
75104;SDS011;64778;47.314;8.466;2022-12-10T06:53:01;17.45;;;9.18;;
75104;SDS011;64778;47.314;8.466;2022-12-10T06:55:27;15.52;;;9.10;;
75104;SDS011;64778;47.314;8.466;2022-12-10T06:57:55;14.90;;;8.55;;
75104;SDS011;64778;47.314;8.466;2022-12-10T07:00:21;14.05;;;8.23;;
75104;SDS011;64778;47.314;8.466;2022-12-10T07:02:48;14.43;;;8.10;;
75104;SDS011;64778;47.314;8.466;2022-12-10T07:05:14;15.20;;;8.52;;
75104;SDS011;64778;47.314;8.466;2022-12-10T07:07:40;13.90;;;8.13;;
75104;SDS011;64778;47.314;8.466;2022-12-10T07:10:08;14.45;;;8.30;;
75104;SDS011;64778;47.314;8.466;2022-12-10T07:12:34;15.65;;;8.45;;
75104;SDS011;64778;47.314;8.466;2022-12-10T07:15:00;15.18;;;8.80;;
75104;SDS011;64778;47.314;8.466;2022-12-10T07:17:26;16.08;;;9.40;;
75104;SDS011;64778;47.314;8.466;2022-12-10T07:22:20;14.15;;;8.27;;
75104;SDS011;64778;47.314;8.466;2022-12-10T07:24:48;16.27;;;8.88;;
75104;SDS011;64778;47.314;8.466;2022-12-10T07:27:15;15.63;;;8.93;;
75104;SDS011;64778;47.314;8.466;2022-12-10T07:29:41;17.02;;;9.48;;
75104;SDS011;64778;47.314;8.466;2022-12-10T07:32:11;15.63;;;9.48;;
75104;SDS011;64778;47.314;8.466;2022-12-10T07:34:37;18.58;;;10.27;;
75104;SDS011;64778;47.314;8.466;2022-12-10T07:37:03;19.80;;;10.48;;
75104;SDS011;64778;47.314;8.466;2022-12-10T07:41:59;21.17;;;10.57;;
75104;SDS011;64778;47.314;8.466;2022-12-10T07:44:25;20.45;;;10.65;;
75104;SDS011;64778;47.314;8.466;2022-12-10T07:46:52;22.02;;;10.32;;
75104;SDS011;64778;47.314;8.466;2022-12-10T07:49:19;18.88;;;10.13;;
75104;SDS011;64778;47.314;8.466;2022-12-10T07:51:45;23.25;;;11.73;;
75104;SDS011;64778;47.314;8.466;2022-12-10T07:54:15;22.98;;;12.05;;
75104;SDS011;64778;47.314;8.466;2022-12-10T07:56:42;19.40;;;11.55;;
75104;SDS011;64778;47.314;8.466;2022-12-10T07:59:10;22.77;;;11.48;;
75104;SDS011;64778;47.314;8.466;2022-12-10T08:01:36;19.83;;;11.30;;
75104;SDS011;64778;47.314;8.466;2022-12-10T08:04:02;21.60;;;11.32;;
75104;SDS011;64778;47.314;8.466;2022-12-10T08:06:32;19.80;;;10.75;;
75104;SDS011;64778;47.314;8.466;2022-12-10T08:09:00;23.42;;;10.90;;
75104;SDS011;64778;47.314;8.466;2022-12-10T08:11:28;20.63;;;10.35;;
75104;SDS011;64778;47.314;8.466;2022-12-10T08:13:54;22.02;;;11.73;;
75104;SDS011;64778;47.314;8.466;2022-12-10T08:16:21;21.08;;;10.25;;
75104;SDS011;64778;47.314;8.466;2022-12-10T08:18:50;17.55;;;9.73;;
75104;SDS011;64778;47.314;8.466;2022-12-10T08:21:17;17.77;;;9.77;;
75104;SDS011;64778;47.314;8.466;2022-12-10T08:23:45;18.45;;;10.55;;
75104;SDS011;64778;47.314;8.466;2022-12-10T08:26:15;18.00;;;10.18;;
75104;SDS011;64778;47.314;8.466;2022-12-10T08:28:42;16.42;;;9.88;;
75104;SDS011;64778;47.314;8.466;2022-12-10T08:31:13;16.45;;;10.38;;
75104;SDS011;64778;47.314;8.466;2022-12-10T08:33:45;17.90;;;10.02;;
75104;SDS011;64778;47.314;8.466;2022-12-10T08:36:13;18.98;;;10.73;;
75104;SDS011;64778;47.314;8.466;2022-12-10T08:38:42;18.50;;;10.13;;
75104;SDS011;64778;47.314;8.466;2022-12-10T08:41:13;18.20;;;10.30;;
75104;SDS011;64778;47.314;8.466;2022-12-10T08:43:44;18.67;;;9.75;;
75104;SDS011;64778;47.314;8.466;2022-12-10T08:46:10;16.63;;;9.38;;
75104;SDS011;64778;47.314;8.466;2022-12-10T08:48:40;18.90;;;9.65;;
75104;SDS011;64778;47.314;8.466;2022-12-10T08:51:09;17.40;;;9.77;;
75104;SDS011;64778;47.314;8.466;2022-12-10T08:53:40;18.60;;;10.10;;
75104;SDS011;64778;47.314;8.466;2022-12-10T08:56:06;19.90;;;10.77;;
75104;SDS011;64778;47.314;8.466;2022-12-10T08:58:32;16.25;;;10.20;;
75104;SDS011;64778;47.314;8.466;2022-12-10T09:01:05;18.38;;;9.73;;
75104;SDS011;64778;47.314;8.466;2022-12-10T09:03:35;16.92;;;9.63;;
75104;SDS011;64778;47.314;8.466;2022-12-10T09:06:03;18.13;;;10.35;;
75104;SDS011;64778;47.314;8.466;2022-12-10T09:08:33;18.42;;;10.57;;
75104;SDS011;64778;47.314;8.466;2022-12-10T09:13:34;21.75;;;10.73;;
75104;SDS011;64778;47.314;8.466;2022-12-10T09:16:00;19.30;;;11.05;;
75104;SDS011;64778;47.314;8.466;2022-12-10T09:18:29;17.70;;;10.15;;
75104;SDS011;64778;47.314;8.466;2022-12-10T09:20:54;17.83;;;10.90;;
75104;SDS011;64778;47.314;8.466;2022-12-10T09:25:46;17.38;;;10.30;;
75104;SDS011;64778;47.314;8.466;2022-12-10T09:30:40;15.98;;;9.77;;
75104;SDS011;64778;47.314;8.466;2022-12-10T09:33:05;17.75;;;10.52;;
75104;SDS011;64778;47.314;8.466;2022-12-10T09:35:31;20.83;;;13.00;;
75104;SDS011;64778;47.314;8.466;2022-12-10T09:38:02;22.27;;;13.73;;
75104;SDS011;64778;47.314;8.466;2022-12-10T09:40:31;19.50;;;11.25;;
75104;SDS011;64778;47.314;8.466;2022-12-10T09:43:11;18.27;;;10.57;;
75104;SDS011;64778;47.314;8.466;2022-12-10T09:45:54;16.52;;;9.98;;
75104;SDS011;64778;47.314;8.466;2022-12-10T09:51:34;17.85;;;10.48;;
75104;SDS011;64778;47.314;8.466;2022-12-10T09:54:11;16.33;;;9.45;;
75104;SDS011;64778;47.314;8.466;2022-12-10T09:56:45;15.00;;;9.32;;
75104;SDS011;64778;47.314;8.466;2022-12-10T09:59:17;15.07;;;9.52;;
75104;SDS011;64778;47.314;8.466;2022-12-10T10:01:49;15.68;;;9.45;;
75104;SDS011;64778;47.314;8.466;2022-12-10T10:04:24;15.60;;;9.63;;
75104;SDS011;64778;47.314;8.466;2022-12-10T10:09:15;14.48;;;8.75;;
75104;SDS011;64778;47.314;8.466;2022-12-10T10:11:45;17.05;;;9.55;;
75104;SDS011;64778;47.314;8.466;2022-12-10T10:14:15;15.07;;;8.80;;
75104;SDS011;64778;47.314;8.466;2022-12-10T10:17:23;15.93;;;9.48;;
75104;SDS011;64778;47.314;8.466;2022-12-10T10:19:45;16.65;;;9.68;;
75104;SDS011;64778;47.314;8.466;2022-12-10T10:22:11;18.92;;;10.77;;
75104;SDS011;64778;47.314;8.466;2022-12-10T10:24:40;14.23;;;8.98;;
75104;SDS011;64778;47.314;8.466;2022-12-10T10:27:12;18.27;;;9.70;;
75104;SDS011;64778;47.314;8.466;2022-12-10T10:29:53;18.73;;;10.52;;
75104;SDS011;64778;47.314;8.466;2022-12-10T10:34:57;18.33;;;9.48;;
75104;SDS011;64778;47.314;8.466;2022-12-10T10:37:39;14.75;;;9.07;;
75104;SDS011;64778;47.314;8.466;2022-12-10T10:40:12;14.32;;;8.40;;
75104;SDS011;64778;47.314;8.466;2022-12-10T10:43:20;15.05;;;8.77;;
75104;SDS011;64778;47.314;8.466;2022-12-10T10:45:50;15.40;;;8.77;;
75104;SDS011;64778;47.314;8.466;2022-12-10T10:48:20;14.95;;;8.77;;
75104;SDS011;64778;47.314;8.466;2022-12-10T10:53:20;16.83;;;8.90;;
75104;SDS011;64778;47.314;8.466;2022-12-10T10:55:56;15.05;;;8.48;;
75104;SDS011;64778;47.314;8.466;2022-12-10T10:58:24;15.35;;;9.38;;
75104;SDS011;64778;47.314;8.466;2022-12-10T11:03:31;14.43;;;8.23;;
75104;SDS011;64778;47.314;8.466;2022-12-10T11:06:04;13.43;;;7.85;;
75104;SDS011;64778;47.314;8.466;2022-12-10T11:08:32;13.13;;;7.97;;
75104;SDS011;64778;47.314;8.466;2022-12-10T11:11:05;14.52;;;8.50;;
75104;SDS011;64778;47.314;8.466;2022-12-10T11:13:53;13.25;;;7.85;;
75104;SDS011;64778;47.314;8.466;2022-12-10T11:16:47;14.15;;;8.27;;
75104;SDS011;64778;47.314;8.466;2022-12-10T11:19:20;13.05;;;7.82;;
75104;SDS011;64778;47.314;8.466;2022-12-10T11:21:49;14.27;;;8.23;;
75104;SDS011;64778;47.314;8.466;2022-12-10T11:24:16;11.50;;;7.32;;
75104;SDS011;64778;47.314;8.466;2022-12-10T11:27:02;12.50;;;7.55;;
75104;SDS011;64778;47.314;8.466;2022-12-10T11:37:21;12.07;;;7.00;;
75104;SDS011;64778;47.314;8.466;2022-12-10T11:40:12;14.63;;;8.90;;
75104;SDS011;64778;47.314;8.466;2022-12-10T11:42:52;11.82;;;7.47;;
75104;SDS011;64778;47.314;8.466;2022-12-10T12:04:50;21.05;;;8.43;;
75104;SDS011;64778;47.314;8.466;2022-12-10T12:17:43;13.35;;;7.43;;
75104;SDS011;64778;47.314;8.466;2022-12-10T12:20:20;12.43;;;7.05;;
75104;SDS011;64778;47.314;8.466;2022-12-10T12:22:52;13.57;;;7.53;;
75104;SDS011;64778;47.314;8.466;2022-12-10T12:25:44;15.40;;;8.20;;
75104;SDS011;64778;47.314;8.466;2022-12-10T12:28:19;13.65;;;7.63;;
75104;SDS011;64778;47.314;8.466;2022-12-10T12:30:51;11.80;;;6.85;;
75104;SDS011;64778;47.314;8.466;2022-12-10T12:33:29;11.68;;;6.40;;
75104;SDS011;64778;47.314;8.466;2022-12-10T12:36:00;12.82;;;7.15;;
75104;SDS011;64778;47.314;8.466;2022-12-10T12:38:46;12.13;;;6.95;;
75104;SDS011;64778;47.314;8.466;2022-12-10T12:44:10;12.73;;;7.50;;
75104;SDS011;64778;47.314;8.466;2022-12-10T12:46:45;14.32;;;7.55;;
75104;SDS011;64778;47.314;8.466;2022-12-10T12:49:35;12.25;;;7.50;;
75104;SDS011;64778;47.314;8.466;2022-12-10T12:52:13;13.95;;;7.18;;
75104;SDS011;64778;47.314;8.466;2022-12-10T12:54:52;13.50;;;6.90;;
75104;SDS011;64778;47.314;8.466;2022-12-10T12:57:26;13.85;;;7.75;;
75104;SDS011;64778;47.314;8.466;2022-12-10T13:05:08;16.48;;;8.95;;
75104;SDS011;64778;47.314;8.466;2022-12-10T13:07:42;14.48;;;7.85;;
75104;SDS011;64778;47.314;8.466;2022-12-10T13:10:42;13.93;;;7.85;;
75104;SDS011;64778;47.314;8.466;2022-12-10T13:15:49;18.80;;;8.95;;
75104;SDS011;64778;47.314;8.466;2022-12-10T13:21:32;18.77;;;9.80;;
75104;SDS011;64778;47.314;8.466;2022-12-10T13:24:07;19.90;;;10.05;;
75104;SDS011;64778;47.314;8.466;2022-12-10T13:26:35;20.73;;;10.30;;
75104;SDS011;64778;47.314;8.466;2022-12-10T13:46:21;23.02;;;11.45;;
75104;SDS011;64778;47.314;8.466;2022-12-10T13:48:50;23.02;;;10.85;;
75104;SDS011;64778;47.314;8.466;2022-12-10T13:59:29;21.55;;;10.68;;
75104;SDS011;64778;47.314;8.466;2022-12-10T14:07:50;22.88;;;11.30;;
75104;SDS011;64778;47.314;8.466;2022-12-10T14:10:25;24.35;;;11.57;;
75104;SDS011;64778;47.314;8.466;2022-12-10T14:12:57;21.40;;;10.65;;
75104;SDS011;64778;47.314;8.466;2022-12-10T14:15:26;22.95;;;10.63;;
75104;SDS011;64778;47.314;8.466;2022-12-10T14:18:13;20.98;;;10.07;;
75104;SDS011;64778;47.314;8.466;2022-12-10T14:20:45;22.98;;;11.07;;
75104;SDS011;64778;47.314;8.466;2022-12-10T14:25:57;21.27;;;10.50;;
75104;SDS011;64778;47.314;8.466;2022-12-10T14:28:29;22.02;;;11.25;;
75104;SDS011;64778;47.314;8.466;2022-12-10T14:30:58;21.25;;;10.93;;
75104;SDS011;64778;47.314;8.466;2022-12-10T14:33:24;22.10;;;11.18;;
75104;SDS011;64778;47.314;8.466;2022-12-10T14:35:52;22.10;;;10.75;;
75104;SDS011;64778;47.314;8.466;2022-12-10T14:38:30;21.05;;;10.00;;
75104;SDS011;64778;47.314;8.466;2022-12-10T14:41:00;22.50;;;11.27;;
75104;SDS011;64778;47.314;8.466;2022-12-10T14:46:10;20.02;;;9.95;;
75104;SDS011;64778;47.314;8.466;2022-12-10T14:48:41;22.95;;;10.80;;
75104;SDS011;64778;47.314;8.466;2022-12-10T14:51:12;21.65;;;10.63;;
75104;SDS011;64778;47.314;8.466;2022-12-10T14:53:44;21.08;;;9.90;;
75104;SDS011;64778;47.314;8.466;2022-12-10T14:56:31;22.90;;;10.65;;
75104;SDS011;64778;47.314;8.466;2022-12-10T14:59:04;20.33;;;10.32;;
75104;SDS011;64778;47.314;8.466;2022-12-10T15:01:47;17.95;;;9.63;;
75104;SDS011;64778;47.314;8.466;2022-12-10T15:04:20;20.08;;;10.27;;
75104;SDS011;64778;47.314;8.466;2022-12-10T15:06:46;20.17;;;10.07;;
75104;SDS011;64778;47.314;8.466;2022-12-10T15:09:18;22.17;;;10.75;;
75104;SDS011;64778;47.314;8.466;2022-12-10T15:11:54;19.88;;;10.25;;
75104;SDS011;64778;47.314;8.466;2022-12-10T15:14:22;20.80;;;10.15;;
75104;SDS011;64778;47.314;8.466;2022-12-10T15:16:49;19.25;;;9.98;;
75104;SDS011;64778;47.314;8.466;2022-12-10T15:21:50;18.23;;;9.85;;
75104;SDS011;64778;47.314;8.466;2022-12-10T15:27:00;21.38;;;10.68;;
75104;SDS011;64778;47.314;8.466;2022-12-10T15:29:43;20.00;;;10.25;;
75104;SDS011;64778;47.314;8.466;2022-12-10T15:32:13;20.52;;;10.48;;
75104;SDS011;64778;47.314;8.466;2022-12-10T15:34:46;22.92;;;11.38;;
75104;SDS011;64778;47.314;8.466;2022-12-10T15:37:19;22.20;;;10.52;;
75104;SDS011;64778;47.314;8.466;2022-12-10T15:39:55;22.60;;;12.05;;
75104;SDS011;64778;47.314;8.466;2022-12-10T15:42:27;23.52;;;11.32;;
75104;SDS011;64778;47.314;8.466;2022-12-10T15:47:36;25.42;;;11.68;;
75104;SDS011;64778;47.314;8.466;2022-12-10T15:50:03;23.90;;;11.50;;
75104;SDS011;64778;47.314;8.466;2022-12-10T15:52:31;24.02;;;11.27;;
75104;SDS011;64778;47.314;8.466;2022-12-10T15:54:59;24.13;;;11.52;;
75104;SDS011;64778;47.314;8.466;2022-12-10T15:57:26;22.63;;;11.00;;
75104;SDS011;64778;47.314;8.466;2022-12-10T15:59:59;24.90;;;11.77;;
75104;SDS011;64778;47.314;8.466;2022-12-10T16:08:23;23.60;;;11.13;;
75104;SDS011;64778;47.314;8.466;2022-12-10T16:10:56;25.48;;;12.00;;
75104;SDS011;64778;47.314;8.466;2022-12-10T16:13:31;21.00;;;10.70;;
75104;SDS011;64778;47.314;8.466;2022-12-10T16:16:09;22.27;;;11.00;;
75104;SDS011;64778;47.314;8.466;2022-12-10T16:18:38;21.00;;;10.80;;
75104;SDS011;64778;47.314;8.466;2022-12-10T16:21:04;23.15;;;10.98;;
75104;SDS011;64778;47.314;8.466;2022-12-10T16:23:31;21.40;;;10.02;;
75104;SDS011;64778;47.314;8.466;2022-12-10T16:25:57;20.23;;;10.50;;
75104;SDS011;64778;47.314;8.466;2022-12-10T16:28:26;24.10;;;11.13;;
75104;SDS011;64778;47.314;8.466;2022-12-10T16:30:56;19.67;;;9.90;;
75104;SDS011;64778;47.314;8.466;2022-12-10T16:33:27;23.73;;;11.63;;
75104;SDS011;64778;47.314;8.466;2022-12-10T16:35:53;23.17;;;11.35;;
75104;SDS011;64778;47.314;8.466;2022-12-10T16:38:20;23.38;;;11.95;;
75104;SDS011;64778;47.314;8.466;2022-12-10T16:40:46;30.88;;;13.15;;
75104;SDS011;64778;47.314;8.466;2022-12-10T16:43:20;26.73;;;12.95;;
75104;SDS011;64778;47.314;8.466;2022-12-10T16:45:50;22.65;;;11.35;;
75104;SDS011;64778;47.314;8.466;2022-12-10T16:48:19;24.85;;;12.00;;
75104;SDS011;64778;47.314;8.466;2022-12-10T16:50:46;25.77;;;13.07;;
75104;SDS011;64778;47.314;8.466;2022-12-10T16:55:43;21.98;;;11.48;;
75104;SDS011;64778;47.314;8.466;2022-12-10T17:00:35;26.13;;;12.93;;
75104;SDS011;64778;47.314;8.466;2022-12-10T17:05:33;25.50;;;12.43;;
75104;SDS011;64778;47.314;8.466;2022-12-10T17:08:03;21.63;;;10.75;;
75104;SDS011;64778;47.314;8.466;2022-12-10T17:10:29;21.63;;;10.65;;
75104;SDS011;64778;47.314;8.466;2022-12-10T17:13:14;24.73;;;12.40;;
75104;SDS011;64778;47.314;8.466;2022-12-10T17:15:41;22.42;;;11.75;;
75104;SDS011;64778;47.314;8.466;2022-12-10T17:18:16;26.70;;;12.27;;
75104;SDS011;64778;47.314;8.466;2022-12-10T17:20:44;26.33;;;12.63;;
75104;SDS011;64778;47.314;8.466;2022-12-10T17:23:11;25.58;;;12.23;;
75104;SDS011;64778;47.314;8.466;2022-12-10T17:25:39;24.13;;;11.95;;
75104;SDS011;64778;47.314;8.466;2022-12-10T17:28:08;26.48;;;13.23;;
75104;SDS011;64778;47.314;8.466;2022-12-10T17:30:38;25.60;;;12.38;;
75104;SDS011;64778;47.314;8.466;2022-12-10T17:33:04;23.35;;;11.18;;
75104;SDS011;64778;47.314;8.466;2022-12-10T17:35:33;25.58;;;12.77;;
75104;SDS011;64778;47.314;8.466;2022-12-10T17:37:59;25.20;;;12.02;;
75104;SDS011;64778;47.314;8.466;2022-12-10T17:42:50;28.67;;;12.30;;
75104;SDS011;64778;47.314;8.466;2022-12-10T17:47:43;23.67;;;10.85;;
75104;SDS011;64778;47.314;8.466;2022-12-10T17:52:46;24.70;;;11.73;;
75104;SDS011;64778;47.314;8.466;2022-12-10T17:55:14;23.95;;;11.65;;
75104;SDS011;64778;47.314;8.466;2022-12-10T17:57:41;24.23;;;11.95;;
75104;SDS011;64778;47.314;8.466;2022-12-10T18:00:10;25.70;;;12.30;;
75104;SDS011;64778;47.314;8.466;2022-12-10T18:02:40;22.95;;;10.95;;
75104;SDS011;64778;47.314;8.466;2022-12-10T18:05:06;21.15;;;11.30;;
75104;SDS011;64778;47.314;8.466;2022-12-10T18:09:58;21.95;;;10.70;;